createdAt,value
2022-10-23T00:00:15.368Z,4.53
2022-10-23T00:02:43.678Z,2.47
2022-10-23T00:05:11.881Z,2.97
2022-10-23T00:07:39.756Z,4.70
2022-10-23T00:10:08.575Z,2.17
2022-10-23T00:12:39.256Z,3.30
2022-10-23T00:15:07.981Z,2.17
2022-10-23T00:17:35.723Z,3.90
2022-10-23T00:20:03.579Z,3.17
2022-10-23T00:22:31.350Z,2.40
2022-10-23T00:24:59.112Z,2.63
2022-10-23T00:27:27.163Z,3.10
2022-10-23T00:29:56.516Z,3.57
2022-10-23T00:32:24.326Z,2.60
2022-10-23T00:34:52.357Z,2.67
2022-10-23T00:37:21.490Z,2.10
2022-10-23T00:39:49.255Z,2.73
2022-10-23T00:42:18.012Z,2.90
2022-10-23T00:45:15.279Z,1.80
2022-10-23T00:47:43.212Z,5.67
2022-10-23T00:50:11.202Z,7.17
2022-10-23T00:52:45.706Z,5.40
2022-10-23T00:55:14.058Z,2.63
2022-10-23T00:57:44.102Z,2.47
2022-10-23T01:00:17.720Z,2.80
2022-10-23T01:02:47.724Z,2.00
2022-10-23T01:05:17.239Z,3.17
2022-10-23T01:07:53.809Z,2.83
2022-10-23T01:10:31.630Z,3.20
2022-10-23T01:13:05.606Z,2.33
2022-10-23T01:15:40.889Z,5.63
2022-10-23T01:18:16.781Z,2.10
2022-10-23T01:20:54.252Z,2.17
2022-10-23T01:23:43.680Z,3.70
2022-10-23T01:26:36.762Z,3.17
2022-10-23T01:29:12.816Z,5.67
2022-10-23T01:31:46.093Z,4.80
2022-10-23T01:34:17.165Z,3.30
2022-10-23T01:36:49.397Z,3.90
2022-10-23T01:39:22.158Z,3.20
2022-10-23T01:41:55.171Z,3.00
2022-10-23T01:44:37.402Z,3.00
2022-10-23T01:47:08.121Z,4.30
2022-10-23T01:49:47.363Z,3.00
2022-10-23T01:52:19.170Z,3.13
2022-10-23T01:54:52.393Z,2.57
2022-10-23T01:57:23.410Z,1.90
2022-10-23T01:59:56.614Z,3.00
2022-10-23T02:02:27.634Z,2.77
2022-10-23T02:05:00.052Z,2.20
2022-10-23T02:07:28.131Z,3.43
2022-10-23T02:09:56.002Z,1.70
2022-10-23T02:12:32.120Z,2.00
2022-10-23T02:15:08.954Z,2.27
2022-10-23T02:17:46.601Z,2.93
2022-10-23T02:20:23.243Z,2.10
2022-10-23T02:22:58.575Z,1.93
2022-10-23T02:25:31.898Z,4.03
2022-10-23T02:28:04.496Z,2.00
2022-10-23T02:30:46.149Z,2.77
2022-10-23T02:33:15.558Z,1.60
2022-10-23T02:35:43.624Z,1.80
2022-10-23T02:38:31.002Z,2.57
2022-10-23T02:41:08.940Z,2.27
2022-10-23T02:43:44.159Z,2.33
2022-10-23T02:46:20.346Z,1.60
2022-10-23T02:48:57.471Z,1.80
2022-10-23T02:51:33.244Z,2.43
2022-10-23T02:54:07.704Z,2.00
2022-10-23T02:56:45.132Z,1.77
2022-10-23T02:59:22.273Z,3.73
2022-10-23T03:01:56.884Z,1.30
2022-10-23T03:04:27.038Z,3.47
2022-10-23T03:06:55.579Z,3.60
2022-10-23T03:09:24.208Z,1.60
2022-10-23T03:11:51.988Z,1.57
2022-10-23T03:14:19.937Z,1.40
2022-10-23T03:16:47.740Z,1.50
2022-10-23T03:19:16.890Z,1.73
2022-10-23T03:21:44.673Z,1.53
2022-10-23T03:24:12.532Z,2.60
2022-10-23T03:26:43.544Z,3.13
2022-10-23T03:29:11.498Z,5.60
2022-10-23T03:31:45.202Z,1.57
2022-10-23T03:34:14.891Z,2.67
2022-10-23T03:36:44.209Z,1.70
2022-10-23T03:39:12.174Z,2.80
2022-10-23T03:41:39.965Z,2.27
2022-10-23T03:44:08.508Z,1.83
2022-10-23T03:46:36.395Z,2.77
2022-10-23T03:49:05.705Z,2.63
2022-10-23T03:51:33.873Z,1.47
2022-10-23T03:54:03.252Z,1.53
2022-10-23T03:56:31.754Z,2.80
2022-10-23T03:59:01.030Z,6.30
2022-10-23T04:01:29.120Z,1.07
2022-10-23T04:03:56.953Z,2.10
2022-10-23T04:06:26.869Z,1.87
2022-10-23T04:08:57.576Z,1.20
2022-10-23T04:11:26.769Z,3.33
2022-10-23T04:13:54.663Z,1.87
2022-10-23T04:16:24.265Z,1.00
2022-10-23T04:18:53.247Z,3.07
2022-10-23T04:21:21.038Z,1.10
2022-10-23T04:23:48.853Z,4.03
2022-10-23T04:26:18.932Z,1.47
2022-10-23T04:28:48.118Z,2.30
2022-10-23T04:31:17.082Z,3.30
2022-10-23T04:33:44.914Z,2.90
2022-10-23T04:36:26.622Z,1.30
2022-10-23T04:38:54.382Z,2.67
2022-10-23T04:41:22.127Z,1.10
2022-10-23T04:43:51.394Z,2.47
2022-10-23T04:46:19.300Z,1.37
2022-10-23T04:48:49.040Z,2.33
2022-10-23T04:51:39.652Z,4.70
2022-10-23T04:54:45.814Z,1.37
2022-10-23T04:57:52.334Z,3.63
2022-10-23T05:00:25.614Z,4.20
2022-10-23T05:02:55.839Z,2.50
2022-10-23T05:05:23.959Z,3.60
2022-10-23T05:07:54.382Z,1.00
2022-10-23T05:10:36.608Z,1.10
2022-10-23T05:13:12.948Z,1.53
2022-10-23T05:18:14.870Z,1.37
2022-10-23T05:20:45.612Z,1.00
2022-10-23T05:23:17.567Z,1.50
2022-10-23T05:25:55.003Z,3.40
2022-10-23T05:28:23.832Z,1.63
2022-10-23T05:30:56.564Z,4.67
2022-10-23T05:33:29.438Z,2.10
2022-10-23T05:35:58.581Z,3.80
2022-10-23T05:38:29.074Z,4.53
2022-10-23T05:40:57.598Z,1.77
2022-10-23T05:43:26.966Z,2.60
2022-10-23T05:46:06.674Z,1.07
2022-10-23T05:49:06.765Z,4.80
2022-10-23T05:51:53.336Z,1.20
2022-10-23T05:54:46.599Z,1.73
2022-10-23T05:57:35.282Z,3.07
2022-10-23T06:00:08.056Z,1.57
2022-10-23T06:02:43.051Z,2.90
2022-10-23T06:05:28.668Z,3.10
2022-10-23T06:08:18.419Z,1.50
2022-10-23T06:10:49.461Z,1.27
2022-10-23T06:13:17.598Z,3.33
2022-10-23T06:15:46.155Z,1.20
2022-10-23T06:18:24.449Z,1.40
2022-10-23T06:21:01.670Z,1.23
2022-10-23T06:23:35.388Z,2.00
2022-10-23T06:26:27.149Z,1.30
2022-10-23T06:29:07.815Z,1.43
2022-10-23T06:31:37.207Z,1.10
2022-10-23T06:34:07.536Z,2.60
2022-10-23T06:36:35.664Z,1.30
2022-10-23T06:39:31.938Z,2.87
2022-10-23T06:42:10.021Z,2.40
2022-10-23T06:45:13.159Z,1.40
2022-10-23T06:48:03.929Z,1.40
2022-10-23T06:50:59.658Z,2.53
2022-10-23T06:53:38.918Z,2.03
2022-10-23T06:56:15.345Z,1.63
2022-10-23T06:58:43.343Z,1.57
2022-10-23T07:01:16.507Z,2.77
2022-10-23T07:03:46.120Z,2.77
2022-10-23T07:06:16.218Z,1.00
2022-10-23T07:08:44.422Z,1.13
2022-10-23T07:11:32.564Z,2.03
2022-10-23T07:14:00.672Z,1.70
2022-10-23T07:16:28.661Z,1.27
2022-10-23T07:19:01.042Z,2.30
2022-10-23T07:21:32.335Z,5.47
2022-10-23T07:24:17.808Z,2.47
2022-10-23T07:26:45.910Z,2.77
2022-10-23T07:29:15.492Z,1.83
2022-10-23T07:31:44.299Z,1.80
2022-10-23T07:34:31.650Z,2.37
2022-10-23T07:37:22.081Z,3.23
2022-10-23T07:39:52.950Z,1.97
2022-10-23T07:42:21.202Z,2.00
2022-10-23T07:44:49.800Z,1.63
2022-10-23T07:47:18.135Z,2.23
2022-10-23T07:49:50.273Z,3.13
2022-10-23T07:52:22.352Z,1.97
2022-10-23T07:55:09.520Z,1.13
2022-10-23T07:57:40.379Z,1.27
2022-10-23T08:00:17.157Z,3.03
2022-10-23T08:02:55.212Z,2.30
2022-10-23T08:05:24.151Z,2.17
2022-10-23T08:08:01.715Z,2.10
2022-10-23T08:10:31.662Z,1.63
2022-10-23T08:13:00.716Z,1.93
2022-10-23T08:16:03.947Z,3.13
2022-10-23T08:18:51.079Z,1.60
2022-10-23T08:21:20.687Z,2.07
2022-10-23T08:23:54.465Z,1.67
2022-10-23T08:26:22.437Z,1.50
2022-10-23T08:28:50.320Z,1.83
2022-10-23T08:31:21.354Z,3.00
2022-10-23T08:34:09.477Z,1.60
2022-10-23T08:36:39.213Z,3.30
2022-10-23T08:39:09.134Z,2.70
2022-10-23T08:41:42.762Z,5.70
2022-10-23T08:44:22.449Z,3.83
2022-10-23T08:46:54.000Z,2.37
2022-10-23T08:49:46.655Z,3.80
2022-10-23T08:52:21.120Z,3.30
2022-10-23T08:54:57.400Z,2.83
2022-10-23T08:57:33.180Z,2.17
2022-10-23T09:00:26.965Z,1.10
2022-10-23T09:02:56.040Z,1.37
2022-10-23T09:05:29.069Z,1.63
2022-10-23T09:08:08.664Z,1.30
2022-10-23T09:11:03.203Z,4.50
2022-10-23T09:13:55.348Z,1.57
2022-10-23T09:16:35.315Z,1.30
2022-10-23T09:19:04.242Z,3.40
2022-10-23T09:21:34.056Z,1.17
2022-10-23T09:24:01.985Z,4.30
2022-10-23T09:26:31.255Z,1.37
2022-10-23T09:29:15.242Z,1.37
2022-10-23T09:31:50.141Z,2.83
2022-10-23T09:34:21.798Z,1.57
2022-10-23T09:39:31.671Z,2.03
2022-10-23T09:42:02.648Z,2.10
2022-10-23T09:44:32.245Z,3.70
2022-10-23T09:47:01.787Z,2.60
2022-10-23T09:49:31.366Z,1.10
2022-10-23T09:52:03.711Z,7.80
2022-10-23T09:54:34.414Z,2.70
2022-10-23T09:57:16.361Z,1.37
2022-10-23T09:59:44.210Z,1.87
2022-10-23T10:02:23.954Z,1.83
2022-10-23T10:05:24.250Z,1.30
2022-10-23T10:08:01.114Z,2.47
2022-10-23T10:10:36.934Z,1.13
2022-10-23T10:13:31.950Z,1.37
2022-10-23T10:16:04.503Z,1.50
2022-10-23T10:18:41.050Z,1.03
2022-10-23T10:21:19.164Z,3.77
2022-10-23T10:23:51.327Z,0.80
2022-10-23T10:26:33.788Z,1.37
2022-10-23T10:29:14.577Z,2.03
2022-10-23T10:31:55.624Z,2.23
2022-10-23T10:34:30.192Z,1.00
2022-10-23T10:37:09.830Z,1.67
2022-10-23T10:39:44.326Z,1.27
2022-10-23T10:42:31.950Z,2.00
2022-10-23T10:45:27.259Z,2.23
2022-10-23T10:48:21.053Z,7.47
2022-10-23T10:51:23.387Z,2.50
2022-10-23T10:54:05.334Z,1.97
2022-10-23T10:56:36.163Z,1.27
2022-10-23T10:59:07.570Z,1.97
2022-10-23T11:01:43.667Z,1.37
2022-10-23T11:04:21.081Z,1.23
2022-10-23T11:06:53.828Z,1.97
2022-10-23T11:09:24.271Z,3.30
2022-10-23T11:11:52.714Z,0.80
2022-10-23T11:14:23.326Z,2.63
2022-10-23T11:16:55.882Z,2.10
2022-10-23T11:19:28.619Z,1.73
2022-10-23T11:22:01.445Z,1.13
2022-10-23T11:25:16.981Z,1.23
2022-10-23T11:28:12.366Z,0.90
2022-10-23T11:30:50.593Z,1.33
2022-10-23T11:33:45.553Z,1.40
2022-10-23T11:36:17.027Z,2.70
2022-10-23T11:38:49.869Z,2.20
2022-10-23T11:41:26.844Z,4.90
2022-10-23T11:44:04.439Z,3.40
2022-10-23T11:46:36.235Z,1.80
2022-10-23T11:49:20.111Z,0.93
2022-10-23T11:51:47.971Z,0.90
2022-10-23T11:54:27.144Z,0.80
2022-10-23T11:57:11.402Z,1.37
2022-10-23T11:59:52.608Z,1.83
2022-10-23T12:02:33.169Z,2.50
2022-10-23T12:05:06.333Z,2.60
2022-10-23T12:07:37.164Z,4.53
2022-10-23T12:10:08.048Z,2.60
2022-10-23T12:12:40.907Z,2.50
2022-10-23T12:15:22.422Z,2.33
2022-10-23T12:17:51.715Z,1.00
2022-10-23T12:20:38.061Z,2.53
2022-10-23T12:23:34.614Z,2.37
2022-10-23T12:26:17.923Z,3.33
2022-10-23T12:28:54.929Z,1.20
2022-10-23T12:31:36.470Z,2.40
2022-10-23T12:34:15.984Z,1.83
2022-10-23T12:37:10.950Z,0.83
2022-10-23T12:39:40.714Z,2.23
2022-10-23T12:42:16.814Z,3.63
2022-10-23T12:44:44.711Z,1.30
2022-10-23T12:47:18.735Z,1.63
2022-10-23T12:49:50.866Z,2.63
2022-10-23T12:52:24.506Z,2.67
2022-10-23T12:54:52.718Z,2.80
2022-10-23T12:57:23.242Z,2.03
2022-10-23T12:59:53.132Z,3.97
2022-10-23T13:02:26.443Z,0.83
2022-10-23T13:04:56.849Z,1.73
2022-10-23T13:07:30.281Z,0.70
2022-10-23T13:10:01.938Z,0.80
2022-10-23T13:12:41.320Z,4.60
2022-10-23T13:15:18.504Z,2.43
2022-10-23T13:18:00.646Z,4.30
2022-10-23T13:20:30.542Z,1.17
2022-10-23T13:23:03.019Z,4.60
2022-10-23T13:25:33.252Z,2.47
2022-10-23T13:28:14.993Z,1.10
2022-10-23T13:30:46.211Z,2.10
2022-10-23T13:33:24.433Z,4.07
2022-10-23T13:35:59.068Z,4.30
2022-10-23T13:38:34.273Z,2.83
2022-10-23T13:41:04.768Z,1.63
2022-10-23T13:43:34.625Z,3.57
2022-10-23T13:46:03.180Z,3.97
2022-10-23T13:48:33.064Z,2.60
2022-10-23T13:51:12.185Z,1.10
2022-10-23T13:53:41.920Z,2.20
2022-10-23T13:56:13.116Z,2.17
2022-10-23T13:58:42.067Z,1.63
2022-10-23T14:01:18.543Z,2.63
2022-10-23T14:03:47.210Z,1.63
2022-10-23T14:06:18.107Z,4.17
2022-10-23T14:08:47.815Z,2.77
2022-10-23T14:11:17.479Z,3.77
2022-10-23T14:13:46.333Z,1.93
2022-10-23T14:16:16.594Z,1.87
2022-10-23T14:18:45.513Z,3.77
2022-10-23T14:21:16.169Z,2.10
2022-10-23T14:23:44.493Z,1.20
2022-10-23T14:26:16.450Z,1.20
2022-10-23T14:28:45.203Z,4.50
2022-10-23T14:31:15.043Z,5.40
2022-10-23T14:33:43.974Z,1.97
2022-10-23T14:36:12.549Z,1.53
2022-10-23T14:38:41.009Z,2.57
2022-10-23T14:41:15.972Z,1.47
2022-10-23T14:43:44.697Z,5.53
2022-10-23T14:46:15.062Z,2.40
2022-10-23T14:48:46.155Z,1.77
2022-10-23T14:51:21.821Z,4.03
2022-10-23T14:53:51.425Z,2.60
2022-10-23T14:56:21.294Z,3.40
2022-10-23T14:58:49.090Z,1.50
2022-10-23T15:01:17.901Z,2.10
2022-10-23T15:03:46.288Z,2.77
2022-10-23T15:06:17.599Z,7.63
2022-10-23T15:08:46.596Z,3.50
2022-10-23T15:11:14.476Z,3.63
2022-10-23T15:13:43.642Z,4.57
2022-10-23T15:16:11.893Z,3.97
2022-10-23T15:18:40.019Z,2.67
2022-10-23T15:21:09.346Z,3.83
2022-10-23T15:23:40.812Z,3.77
2022-10-23T15:26:10.748Z,6.70
2022-10-23T15:28:38.662Z,4.43
2022-10-23T15:31:07.948Z,5.00
2022-10-23T15:33:38.868Z,4.83
2022-10-23T15:36:07.171Z,3.93
2022-10-23T15:38:34.961Z,2.93
2022-10-23T15:41:16.162Z,5.40
2022-10-23T15:43:44.178Z,3.13
2022-10-23T15:46:13.621Z,3.77
2022-10-23T15:48:42.621Z,6.67
2022-10-23T15:51:10.670Z,4.13
2022-10-23T15:53:38.957Z,3.30
2022-10-23T15:56:07.738Z,5.43
2022-10-23T15:58:35.714Z,3.67
2022-10-23T16:01:06.245Z,5.33
2022-10-23T16:03:36.115Z,7.40
2022-10-23T16:06:04.742Z,2.97
2022-10-23T16:08:32.925Z,6.10
2022-10-23T16:11:01.102Z,1.97
2022-10-23T16:13:29.483Z,4.80
2022-10-23T16:15:57.646Z,4.07
2022-10-23T16:18:25.656Z,4.47
2022-10-23T16:20:55.548Z,5.67
2022-10-23T16:23:23.556Z,2.20
2022-10-23T16:25:51.682Z,3.87
2022-10-23T16:28:19.635Z,3.00
2022-10-23T16:30:47.619Z,4.97
2022-10-23T16:33:15.588Z,4.60
2022-10-23T16:35:45.999Z,4.00
2022-10-23T16:38:20.718Z,6.10
2022-10-23T16:40:52.890Z,13.67
2022-10-23T16:43:41.744Z,12.03
2022-10-23T16:46:22.408Z,11.95
2022-10-23T16:48:52.557Z,9.03
2022-10-23T16:51:23.587Z,9.93
2022-10-23T16:53:53.692Z,4.90
2022-10-23T16:56:25.252Z,3.23
2022-10-23T16:58:53.273Z,4.20
2022-10-23T17:01:23.432Z,11.23
2022-10-23T17:03:53.241Z,6.33
2022-10-23T17:06:22.944Z,5.77
2022-10-23T17:08:53.231Z,7.73
2022-10-23T17:11:23.407Z,2.80
2022-10-23T17:13:57.198Z,2.73
2022-10-23T17:16:29.170Z,3.00
2022-10-23T17:18:57.544Z,3.30
2022-10-23T17:21:25.728Z,4.80
2022-10-23T17:23:57.305Z,5.80
2022-10-23T17:26:25.565Z,3.07
2022-10-23T17:28:53.746Z,3.50
2022-10-23T17:31:23.234Z,4.23
2022-10-23T17:33:54.134Z,3.00
2022-10-23T17:36:22.791Z,3.40
2022-10-23T17:38:50.777Z,3.77
2022-10-23T17:41:21.553Z,5.07
2022-10-23T17:43:49.584Z,4.17
2022-10-23T17:46:18.304Z,6.00
2022-10-23T17:48:46.206Z,5.23
2022-10-23T17:51:15.984Z,5.90
2022-10-23T17:53:45.964Z,4.50
2022-10-23T17:56:19.055Z,3.33
2022-10-23T17:58:48.707Z,4.57
2022-10-23T18:01:19.880Z,7.03
2022-10-23T18:03:48.263Z,7.33
2022-10-23T18:06:18.960Z,3.87
2022-10-23T18:08:47.540Z,4.90
2022-10-23T18:11:17.236Z,4.00
2022-10-23T18:13:46.102Z,5.50
2022-10-23T18:16:15.936Z,5.70
2022-10-23T18:18:48.053Z,5.00
2022-10-23T18:21:17.402Z,3.43
2022-10-23T18:23:45.282Z,5.33
2022-10-23T18:26:16.971Z,5.30
2022-10-23T18:28:46.134Z,5.53
2022-10-23T18:31:17.496Z,8.00
2022-10-23T18:33:48.440Z,4.53
2022-10-23T18:36:20.389Z,4.83
2022-10-23T18:38:48.410Z,8.77
2022-10-23T18:41:17.250Z,7.50
2022-10-23T18:43:45.343Z,5.23
2022-10-23T18:46:15.440Z,7.50
2022-10-23T18:48:44.534Z,5.53
2022-10-23T18:51:16.728Z,6.23
2022-10-23T18:53:46.962Z,6.63
2022-10-23T18:56:15.447Z,7.10
2022-10-23T18:58:43.397Z,10.00
2022-10-23T19:01:11.813Z,8.17
2022-10-23T19:03:41.189Z,6.50
2022-10-23T19:06:10.077Z,6.13
2022-10-23T19:08:45.590Z,4.77
2022-10-23T19:11:14.896Z,8.23
2022-10-23T19:13:43.480Z,4.23
2022-10-23T19:16:15.338Z,4.53
2022-10-23T19:18:47.929Z,6.70
2022-10-23T19:21:17.848Z,7.43
2022-10-23T19:23:45.967Z,9.33
2022-10-23T19:26:14.819Z,6.27
2022-10-23T19:28:45.771Z,6.17
2022-10-23T19:31:14.618Z,7.80
2022-10-23T19:33:43.991Z,7.47
2022-10-23T19:36:14.316Z,3.63
2022-10-23T19:38:43.133Z,7.23
2022-10-23T19:41:11.625Z,8.10
2022-10-23T19:43:39.563Z,5.77
2022-10-23T19:46:11.026Z,5.77
2022-10-23T19:48:42.651Z,6.57
2022-10-23T19:51:13.966Z,7.27
2022-10-23T19:53:42.720Z,6.17
2022-10-23T19:56:12.717Z,6.83
2022-10-23T19:58:41.517Z,11.63
2022-10-23T20:01:11.686Z,9.70
2022-10-23T20:03:40.249Z,7.70
2022-10-23T20:06:12.293Z,6.33
2022-10-23T20:08:40.670Z,6.17
2022-10-23T20:11:09.127Z,8.97
2022-10-23T20:13:37.097Z,4.73
2022-10-23T20:16:05.319Z,10.70
2022-10-23T20:18:33.340Z,8.50
2022-10-23T20:21:03.037Z,9.37
2022-10-23T20:23:32.337Z,5.30
2022-10-23T20:26:06.097Z,6.97
2022-10-23T20:28:34.327Z,5.77
2022-10-23T20:31:06.299Z,6.90
2022-10-23T20:33:34.180Z,8.60
2022-10-23T20:36:02.156Z,8.60
2022-10-23T20:38:30.403Z,8.00
2022-10-23T20:41:04.039Z,7.10
2022-10-23T20:43:33.793Z,6.33
2022-10-23T20:46:04.685Z,8.00
2022-10-23T20:48:35.725Z,9.47
2022-10-23T20:51:04.613Z,13.17
2022-10-23T20:53:33.116Z,9.73
2022-10-23T20:56:06.109Z,8.97
2022-10-23T20:58:34.458Z,6.93
2022-10-23T21:01:06.580Z,7.47
2022-10-23T21:03:34.878Z,6.23
2022-10-23T21:06:07.877Z,7.40
2022-10-23T21:08:35.846Z,7.60
2022-10-23T21:11:05.967Z,8.17
2022-10-23T21:13:33.812Z,9.47
2022-10-23T21:16:01.984Z,6.80
2022-10-23T21:18:45.627Z,8.70
2022-10-23T21:21:14.740Z,11.53
2022-10-23T21:23:42.682Z,5.73
2022-10-23T21:26:11.847Z,13.63
2022-10-23T21:28:41.746Z,8.20
2022-10-23T21:31:19.435Z,13.00
2022-10-23T21:33:48.783Z,6.77
2022-10-23T21:36:21.537Z,7.13
2022-10-23T21:38:52.466Z,10.63
2022-10-23T21:41:23.554Z,11.70
2022-10-23T21:43:54.893Z,9.67
2022-10-23T21:46:27.623Z,9.13
2022-10-23T21:48:55.483Z,12.50
2022-10-23T21:51:26.027Z,7.70
2022-10-23T21:53:54.963Z,10.67
2022-10-23T21:56:31.412Z,12.00
2022-10-23T21:58:59.858Z,10.20
2022-10-23T22:01:28.397Z,9.10
2022-10-23T22:03:56.596Z,8.50
2022-10-23T22:06:26.258Z,8.13
2022-10-23T22:08:55.257Z,11.53
2022-10-23T22:11:23.189Z,9.00
2022-10-23T22:13:52.658Z,8.33
2022-10-23T22:16:21.269Z,9.43
2022-10-23T22:18:49.200Z,8.23
2022-10-23T22:21:19.998Z,9.37
2022-10-23T22:23:49.286Z,10.10
2022-10-23T22:26:23.549Z,11.93
2022-10-23T22:28:53.975Z,8.90
2022-10-23T22:31:25.272Z,11.00
2022-10-23T22:33:53.728Z,11.40
2022-10-23T22:36:22.164Z,6.23
2022-10-23T22:38:50.017Z,8.73
2022-10-23T22:41:18.308Z,9.47
2022-10-23T22:43:46.136Z,8.87
2022-10-23T22:46:17.066Z,11.13
2022-10-23T22:48:45.534Z,6.67
2022-10-23T22:51:15.374Z,8.37
2022-10-23T22:53:44.300Z,9.80
2022-10-23T22:56:15.180Z,13.27
2022-10-23T22:58:43.012Z,7.20
2022-10-23T23:01:13.861Z,8.80
2022-10-23T23:03:43.467Z,12.97
2022-10-23T23:06:11.697Z,7.13
2022-10-23T23:08:41.088Z,6.53
2022-10-23T23:11:12.165Z,10.73
2022-10-23T23:13:41.051Z,8.83
2022-10-23T23:16:09.077Z,9.67
2022-10-23T23:18:36.963Z,10.07
2022-10-23T23:21:07.274Z,12.43
2022-10-23T23:23:35.114Z,6.97
2022-10-23T23:26:06.570Z,7.23
2022-10-23T23:28:34.347Z,8.80
2022-10-23T23:31:06.637Z,10.47
2022-10-23T23:33:34.721Z,5.13
2022-10-23T23:36:09.296Z,7.20
2022-10-23T23:38:37.689Z,8.83
2022-10-23T23:41:06.579Z,5.73
2022-10-23T23:43:34.723Z,13.50
2022-10-23T23:46:02.573Z,3.63
2022-10-23T23:48:30.367Z,6.33
2022-10-23T23:50:58.173Z,5.70
2022-10-23T23:53:27.295Z,11.30
2022-10-23T23:55:56.137Z,4.30
2022-10-23T23:58:24.010Z,6.27
